Time;durP1;ratioP1;P1;durP2;ratioP2;P2;SDS_P1;SDS_P2;PMS_P1;PMS_P2;Temp;Humidity;BMP_temperature;BMP_pressure;BME280_temperature;BME280_humidity;BME280_pressure;Samples;Min_cycle;Max_cycle;Signal;HPM_P1;HPM_P2
2021/06/15 00:02:28;;;;;;;2.25;1.58;;;24.60;51.10;;;;;;5053639;28;20056;-50
2021/06/15 00:04:58;;;;;;;2.10;1.50;;;24.60;51.10;;;;;;5052497;28;20562;-51
2021/06/15 00:07:25;;;;;;;2.55;1.50;;;24.60;51.20;;;;;;5041328;28;20519;-50
2021/06/15 00:09:53;;;;;;;1.83;1.45;;;24.60;51.20;;;;;;5051616;28;20443;-51
2021/06/15 00:12:20;;;;;;;1.42;1.15;;;24.60;51.20;;;;;;5041290;28;20701;-53
2021/06/15 00:14:47;;;;;;;1.75;1.33;;;24.60;51.20;;;;;;5036120;28;20099;-54
2021/06/15 00:17:14;;;;;;;2.58;1.25;;;24.60;51.20;;;;;;5035962;28;20493;-53
2021/06/15 00:19:42;;;;;;;1.55;1.30;;;24.60;51.20;;;;;;5045706;28;20135;-52
2021/06/15 00:22:09;;;;;;;2.30;1.35;;;24.60;51.20;;;;;;5044026;28;20481;-53
2021/06/15 00:24:36;;;;;;;2.03;1.52;;;24.60;51.20;;;;;;5036127;28;20107;-53
2021/06/15 00:27:04;;;;;;;2.05;1.58;;;24.60;51.30;;;;;;5043481;28;20073;-55
2021/06/15 00:29:31;;;;;;;1.33;1.15;;;24.60;51.30;;;;;;5050781;28;20122;-55
2021/06/15 00:31:58;;;;;;;2.53;1.38;;;24.60;51.30;;;;;;5048659;28;20045;-50
2021/06/15 00:34:25;;;;;;;1.95;1.60;;;24.60;51.30;;;;;;5041146;28;20114;-53
2021/06/15 00:36:52;;;;;;;2.38;1.10;;;24.60;51.40;;;;;;5051879;28;20493;-53
2021/06/15 00:39:20;;;;;;;1.80;1.38;;;24.60;51.40;;;;;;5055510;28;20114;-52
2021/06/15 00:41:47;;;;;;;2.03;1.30;;;24.60;51.40;;;;;;5069154;28;20445;-54
2021/06/15 00:44:14;;;;;;;2.90;1.63;;;24.60;51.40;;;;;;5051603;28;20102;-52
2021/06/15 00:46:42;;;;;;;2.47;1.70;;;24.60;51.40;;;;;;5052314;28;20076;-50
2021/06/15 00:49:09;;;;;;;2.28;1.30;;;24.60;51.40;;;;;;5051870;28;20045;-53
2021/06/15 00:51:36;;;;;;;2.08;1.52;;;24.60;51.50;;;;;;5051947;28;20053;-52
2021/06/15 00:54:04;;;;;;;2.00;1.42;;;24.60;51.50;;;;;;5053217;28;20045;-52
2021/06/15 00:56:31;;;;;;;2.20;1.50;;;24.60;51.50;;;;;;5037817;28;20461;-48
2021/06/15 00:58:58;;;;;;;2.15;1.60;;;24.60;51.50;;;;;;5050955;28;20168;-49
2021/06/15 01:01:25;;;;;;;2.05;1.40;;;24.60;51.50;;;;;;5037213;28;20057;-53
2021/06/15 01:03:53;;;;;;;2.13;1.42;;;24.60;51.50;;;;;;5035738;28;20053;-48
2021/06/15 01:06:49;;;;;;;1.70;1.40;;;24.60;51.60;;;;;;5048594;28;20446;-51
2021/06/15 01:09:21;;;;;;;1.70;1.17;;;24.60;51.60;;;;;;5051779;28;20045;-49
2021/06/15 01:12:04;;;;;;;2.70;1.65;;;24.60;51.60;;;;;;5052059;28;20098;-52
2021/06/15 01:14:46;;;;;;;2.83;1.55;;;24.60;51.70;;;;;;5052158;28;20095;-48
2021/06/15 01:17:46;;;;;;;1.75;1.35;;;24.60;51.70;;;;;;5034014;28;20053;-51
2021/06/15 01:20:36;;;;;;;2.28;1.38;;;24.60;51.70;;;;;;5028654;28;20084;-49
2021/06/15 01:23:41;;;;;;;2.65;1.70;;;24.60;51.70;;;;;;5049126;28;20172;-51
2021/06/15 01:26:41;;;;;;;1.55;1.20;;;24.60;51.80;;;;;;5027751;28;20068;-52
2021/06/15 01:29:14;;;;;;;3.60;1.60;;;24.50;51.70;;;;;;5056222;28;20485;-51
2021/06/15 01:31:46;;;;;;;2.00;1.50;;;24.50;51.70;;;;;;5045960;28;20512;-54
2021/06/15 01:34:21;;;;;;;2.95;1.60;;;24.50;51.70;;;;;;5049178;28;20041;-49
2021/06/15 01:37:02;;;;;;;2.15;1.42;;;24.50;51.70;;;;;;5056587;28;20075;-50
2021/06/15 01:39:36;;;;;;;2.15;1.27;;;24.50;52.00;;;;;;5055471;28;20501;-51
2021/06/15 01:42:21;;;;;;;1.80;1.40;;;24.50;51.80;;;;;;5054272;28;20459;-51
2021/06/15 01:44:59;;;;;;;1.92;1.38;;;24.50;51.80;;;;;;5041622;28;20103;-50
2021/06/15 01:47:30;;;;;;;1.73;1.13;;;24.60;51.90;;;;;;5037747;28;20045;-51
2021/06/15 01:50:00;;;;;;;2.40;1.55;;;24.50;51.90;;;;;;5051599;28;20052;-55
2021/06/15 01:52:32;;;;;;;2.10;1.40;;;24.50;51.90;;;;;;5055010;28;20053;-55
2021/06/15 01:55:01;;;;;;;1.95;1.40;;;24.50;51.90;;;;;;5055317;28;20045;-54
2021/06/15 01:57:29;;;;;;;2.65;1.52;;;24.50;51.90;;;;;;5043638;28;20103;-54
2021/06/15 02:00:00;;;;;;;1.95;1.40;;;24.60;52.00;;;;;;5038040;28;20057;-54
2021/06/15 02:02:29;;;;;;;2.50;1.40;;;24.50;51.90;;;;;;5048931;28;20475;-55
2021/06/15 02:04:57;;;;;;;2.55;1.58;;;24.60;52.00;;;;;;5046530;28;20046;-54
2021/06/15 02:07:29;;;;;;;1.83;1.30;;;24.50;51.90;;;;;;5045581;28;20041;-55
2021/06/15 02:10:09;;;;;;;3.03;1.45;;;24.50;52.00;;;;;;5046431;28;20055;-53
2021/06/15 02:12:41;;;;;;;1.75;1.30;;;24.50;52.00;;;;;;5047371;28;20049;-52
2021/06/15 02:15:11;;;;;;;2.13;1.23;;;24.50;52.00;;;;;;5054841;28;20127;-53
2021/06/15 02:17:46;;;;;;;2.25;1.60;;;24.50;52.00;;;;;;5047420;28;20119;-54
2021/06/15 02:20:16;;;;;;;2.15;1.40;;;24.50;52.00;;;;;;5048105;28;20045;-52
2021/06/15 02:22:52;;;;;;;1.88;1.20;;;24.50;52.10;;;;;;5046557;28;20056;-53
2021/06/15 02:25:25;;;;;;;2.35;1.33;;;24.50;52.10;;;;;;5039113;28;20125;-54
2021/06/15 02:27:54;;;;;;;2.30;1.65;;;24.50;52.70;;;;;;5047440;28;20463;-53
2021/06/15 02:30:23;;;;;;;2.22;1.45;;;24.50;52.10;;;;;;5054096;28;20037;-53
2021/06/15 02:32:55;;;;;;;2.30;1.38;;;24.50;52.10;;;;;;5053116;28;20045;-50
2021/06/15 02:35:25;;;;;;;2.58;1.48;;;24.50;52.10;;;;;;5054165;28;20509;-53
2021/06/15 02:38:04;;;;;;;2.50;1.40;;;24.50;52.10;;;;;;5054059;28;20079;-55
2021/06/15 02:40:32;;;;;;;1.35;1.15;;;24.50;52.10;;;;;;5053299;28;20102;-52
2021/06/15 02:43:00;;;;;;;1.80;1.27;;;24.50;52.10;;;;;;5048114;28;20095;-55
2021/06/15 02:45:32;;;;;;;1.70;1.23;;;24.50;52.20;;;;;;5038359;28;20103;-53
2021/06/15 02:48:03;;;;;;;1.60;1.30;;;24.50;52.20;;;;;;5042236;28;20485;-54
2021/06/15 02:50:32;;;;;;;1.65;1.30;;;24.50;52.80;;;;;;5054229;28;20045;-51
2021/06/15 02:53:07;;;;;;;1.65;1.35;;;24.50;52.20;;;;;;5052975;28;20037;-49
2021/06/15 02:55:40;;;;;;;1.55;1.20;;;24.50;52.20;;;;;;5054079;28;20041;-49
2021/06/15 02:58:10;;;;;;;1.55;1.13;;;24.50;52.20;;;;;;5054660;28;20123;-48
2021/06/15 03:00:37;;;;;;;1.48;1.20;;;24.50;52.20;;;;;;5050690;28;20080;-55
2021/06/15 03:03:06;;;;;;;1.75;1.15;;;24.50;52.30;;;;;;5037500;28;20045;-51
2021/06/15 03:05:34;;;;;;;1.50;1.20;;;24.50;52.30;;;;;;5038739;28;20056;-49
2021/06/15 03:08:01;;;;;;;1.70;1.30;;;24.50;52.30;;;;;;5053399;28;20053;-53
2021/06/15 03:10:30;;;;;;;1.63;1.23;;;24.50;52.30;;;;;;5053904;28;20120;-53
2021/06/15 03:13:16;;;;;;;1.92;1.50;;;24.50;52.30;;;;;;5036535;28;20050;-49
2021/06/15 03:15:52;;;;;;;1.55;1.10;;;24.50;52.30;;;;;;5037406;28;20186;-49
2021/06/15 03:18:40;;;;;;;2.00;1.35;;;24.50;52.30;;;;;;5038424;28;20416;-50
2021/06/15 03:21:11;;;;;;;2.03;1.38;;;24.50;52.30;;;;;;5052129;28;20061;-51
2021/06/15 03:24:01;;;;;;;1.70;1.38;;;24.50;52.30;;;;;;5039737;28;20099;-50
2021/06/15 03:26:36;;;;;;;2.58;1.30;;;24.50;52.30;;;;;;5052099;28;20076;-53
2021/06/15 03:29:06;;;;;;;2.45;1.60;;;24.50;52.30;;;;;;5048243;28;20073;-51
2021/06/15 03:31:39;;;;;;;1.50;1.40;;;24.50;52.30;;;;;;5041323;28;20067;-50
2021/06/15 03:34:09;;;;;;;1.67;1.17;;;24.50;52.30;;;;;;5053373;28;20049;-52
2021/06/15 03:36:40;;;;;;;1.80;1.30;;;24.50;52.30;;;;;;5053270;28;20044;-50
2021/06/15 03:39:09;;;;;;;2.00;1.50;;;24.50;52.30;;;;;;5053278;28;20045;-52
2021/06/15 03:41:37;;;;;;;2.38;1.40;;;24.50;52.30;;;;;;5053407;28;20474;-48
2021/06/15 03:44:05;;;;;;;2.13;1.30;;;24.50;52.30;;;;;;5052341;28;20489;-51
2021/06/15 03:46:37;;;;;;;1.30;1.00;;;24.50;52.30;;;;;;5036546;28;20123;-51
2021/06/15 03:49:10;;;;;;;1.50;1.33;;;24.50;52.30;;;;;;5052529;28;20510;-52
2021/06/15 03:51:44;;;;;;;2.42;1.65;;;24.60;52.40;;;;;;5052714;28;20041;-50
2021/06/15 03:54:13;;;;;;;1.70;1.27;;;24.60;52.40;;;;;;5038063;28;20550;-52
2021/06/15 03:56:45;;;;;;;1.30;1.13;;;24.60;52.40;;;;;;5052977;28;20374;-53
2021/06/15 03:59:18;;;;;;;2.08;1.20;;;24.60;52.30;;;;;;5035449;28;20459;-50
2021/06/15 04:01:47;;;;;;;1.48;1.25;;;24.60;52.40;;;;;;5035665;28;20122;-53
2021/06/15 04:04:16;;;;;;;1.60;1.42;;;24.60;52.40;;;;;;5035001;28;20057;-50
2021/06/15 04:06:50;;;;;;;1.65;1.23;;;24.60;52.30;;;;;;5052871;28;20452;-50
2021/06/15 04:09:22;;;;;;;1.73;1.30;;;24.60;52.40;;;;;;5051460;28;20098;-51
2021/06/15 04:11:53;;;;;;;2.60;1.60;;;24.60;52.30;;;;;;5052651;28;20053;-53
2021/06/15 04:14:21;;;;;;;1.88;1.23;;;24.60;52.30;;;;;;5052134;28;20089;-53
2021/06/15 04:16:50;;;;;;;1.92;1.35;;;24.60;52.30;;;;;;5053616;28;20041;-51
2021/06/15 04:19:26;;;;;;;2.42;1.40;;;24.70;52.30;;;;;;5037079;28;20460;-50
2021/06/15 04:21:57;;;;;;;3.15;1.40;;;24.70;52.10;;;;;;5053833;28;20052;-51
2021/06/15 04:24:27;;;;;;;1.90;1.40;;;24.80;52.10;;;;;;5051764;28;20048;-53
2021/06/15 04:26:58;;;;;;;1.38;1.20;;;24.80;52.00;;;;;;5053513;28;20075;-52
2021/06/15 04:29:27;;;;;;;1.95;1.48;;;24.80;52.00;;;;;;5066971;28;20041;-51
2021/06/15 04:32:04;;;;;;;1.73;1.25;;;24.80;51.90;;;;;;5054864;28;20049;-49
2021/06/15 04:34:34;;;;;;;1.90;1.48;;;24.80;51.90;;;;;;5052262;28;20049;-50
2021/06/15 04:37:05;;;;;;;1.67;1.27;;;24.90;51.90;;;;;;5052346;28;20052;-51
2021/06/15 04:39:39;;;;;;;1.77;1.20;;;24.90;51.90;;;;;;5053145;28;20045;-53
2021/06/15 04:42:16;;;;;;;2.10;1.30;;;24.90;51.80;;;;;;5051210;28;20103;-53
2021/06/15 04:44:47;;;;;;;2.50;1.60;;;24.90;51.70;;;;;;5051674;28;20345;-51
2021/06/15 04:47:27;;;;;;;1.77;1.33;;;25.00;51.60;;;;;;5051806;28;20508;-54
2021/06/15 04:50:08;;;;;;;1.85;1.38;;;25.00;51.60;;;;;;5052300;28;20041;-52
2021/06/15 04:52:36;;;;;;;1.75;1.35;;;25.10;51.50;;;;;;5035958;28;20124;-50
2021/06/15 04:55:06;;;;;;;1.50;1.27;;;25.10;51.40;;;;;;5050982;28;20049;-52
2021/06/15 04:57:38;;;;;;;2.20;1.55;;;25.20;51.40;;;;;;5051996;28;20393;-52
2021/06/15 05:00:07;;;;;;;2.28;1.33;;;25.20;51.30;;;;;;5036974;28;20092;-51
2021/06/15 05:02:37;;;;;;;2.20;1.40;;;25.20;51.20;;;;;;5038381;28;20100;-49
2021/06/15 05:05:06;;;;;;;1.60;1.20;;;25.20;51.10;;;;;;5040803;28;20144;-50
2021/06/15 05:07:34;;;;;;;1.60;1.25;;;25.30;51.10;;;;;;5059587;28;20102;-53
2021/06/15 05:10:04;;;;;;;1.67;1.23;;;25.30;51.10;;;;;;5057213;28;20072;-54
2021/06/15 05:12:40;;;;;;;1.55;1.27;;;25.30;51.00;;;;;;5045472;28;20549;-54
2021/06/15 05:15:10;;;;;;;2.30;1.20;;;25.30;51.00;;;;;;5050815;28;20489;-54
2021/06/15 05:17:45;;;;;;;2.13;1.45;;;25.30;50.90;;;;;;5055523;28;20459;-52
2021/06/15 05:20:13;;;;;;;1.33;1.23;;;25.40;51.00;;;;;;5056650;28;20074;-49
2021/06/15 05:22:46;;;;;;;1.88;1.25;;;25.40;50.90;;;;;;5055470;28;20492;-52
2021/06/15 05:25:19;;;;;;;1.60;1.40;;;25.40;50.90;;;;;;5044972;28;20099;-51
2021/06/15 05:27:47;;;;;;;1.48;1.20;;;25.40;50.80;;;;;;5048823;28;20045;-54
2021/06/15 05:30:14;;;;;;;1.73;1.25;;;25.40;50.80;;;;;;5055602;28;20455;-54
2021/06/15 05:32:42;;;;;;;1.88;1.38;;;25.40;50.80;;;;;;5047069;28;20042;-49
2021/06/15 05:35:10;;;;;;;1.60;1.20;;;25.40;50.80;;;;;;5046645;28;20060;-55
2021/06/15 05:37:37;;;;;;;1.30;1.10;;;25.40;50.80;;;;;;5048880;28;20045;-54
2021/06/15 05:40:06;;;;;;;1.80;1.38;;;25.50;50.90;;;;;;5044540;28;20048;-55
2021/06/15 05:42:33;;;;;;;2.33;1.30;;;25.50;50.90;;;;;;5055428;28;20118;-51
2021/06/15 05:45:00;;;;;;;2.17;1.40;;;25.50;50.90;;;;;;5050409;28;20078;-54
2021/06/15 05:47:29;;;;;;;1.83;1.15;;;25.50;50.90;;;;;;5041939;28;20048;-54
2021/06/15 05:49:56;;;;;;;2.05;1.45;;;25.50;50.80;;;;;;5055408;28;20049;-52
2021/06/15 05:52:23;;;;;;;2.00;1.40;;;25.50;50.80;;;;;;5053507;28;20512;-50
2021/06/15 05:54:51;;;;;;;3.70;1.30;;;25.50;50.80;;;;;;5055206;28;20041;-55
2021/06/15 05:57:18;;;;;;;2.42;1.75;;;25.50;50.90;;;;;;5054953;28;20084;-50
2021/06/15 05:59:45;;;;;;;2.20;1.17;;;25.50;50.80;;;;;;5037703;28;20058;-51
2021/06/15 06:02:12;;;;;;;2.92;1.48;;;25.50;50.80;;;;;;5053985;28;20049;-51
2021/06/15 06:05:03;;;;;;;1.77;1.33;;;25.50;50.90;;;;;;5054101;28;20405;-52
2021/06/15 06:10:16;;;;;;;1.27;1.05;;;25.40;50.80;;;;;;5038722;28;20099;-52
2021/06/15 06:12:43;;;;;;;1.70;1.42;;;25.50;50.90;;;;;;5054279;28;20037;-52
2021/06/15 06:15:12;;;;;;;2.15;1.40;;;25.40;50.80;;;;;;5038515;28;20046;-51
2021/06/15 06:17:42;;;;;;;2.70;1.33;;;25.50;50.90;;;;;;5053560;28;20110;-50
2021/06/15 06:20:16;;;;;;;2.15;1.45;;;25.40;50.90;;;;;;5054121;28;20045;-49
2021/06/15 06:22:44;;;;;;;1.75;1.10;;;25.40;50.90;;;;;;5053606;28;20401;-50
2021/06/15 06:25:16;;;;;;;1.40;1.02;;;25.40;50.90;;;;;;5054788;28;20049;-49
2021/06/15 06:27:43;;;;;;;1.85;1.38;;;25.40;50.90;;;;;;5054372;28;20466;-52
2021/06/15 06:30:11;;;;;;;2.58;1.65;;;25.40;50.90;;;;;;5054701;28;20115;-50
2021/06/15 06:32:39;;;;;;;2.15;1.40;;;25.40;50.90;;;;;;5038350;28;20124;-49
2021/06/15 06:35:07;;;;;;;1.60;1.30;;;25.40;50.90;;;;;;5053017;28;20056;-49
2021/06/15 06:37:35;;;;;;;1.70;1.30;;;25.40;51.00;;;;;;5041249;28;20447;-50
2021/06/15 06:40:05;;;;;;;2.22;1.33;;;25.40;51.00;;;;;;5038773;28;20052;-49
2021/06/15 06:42:33;;;;;;;2.40;1.20;;;25.40;51.00;;;;;;5037647;28;20461;-51
2021/06/15 06:45:00;;;;;;;1.92;1.25;;;25.40;51.00;;;;;;5049113;28;20416;-47
2021/06/15 06:47:27;;;;;;;1.70;1.30;;;25.40;51.00;;;;;;5054120;28;20049;-48
2021/06/15 06:49:55;;;;;;;1.20;1.10;;;25.40;51.00;;;;;;5042468;28;20053;-48
2021/06/15 06:52:22;;;;;;;2.95;1.52;;;25.40;51.00;;;;;;5037669;28;20041;-50
2021/06/15 06:54:49;;;;;;;2.25;1.77;;;25.40;51.00;;;;;;5046760;28;20045;-49
2021/06/15 06:57:16;;;;;;;1.50;1.20;;;25.40;51.00;;;;;;5054709;28;20040;-50
2021/06/15 06:59:43;;;;;;;1.77;1.20;;;25.40;51.00;;;;;;5053266;28;20060;-51
2021/06/15 07:02:11;;;;;;;1.98;1.13;;;25.40;51.00;;;;;;5054654;28;20116;-50
2021/06/15 07:04:38;;;;;;;1.20;1.00;;;25.40;51.00;;;;;;5051597;28;20105;-48
2021/06/15 07:07:05;;;;;;;2.25;1.60;;;25.40;51.00;;;;;;5053963;28;20495;-50
2021/06/15 07:09:32;;;;;;;1.73;1.23;;;25.40;51.00;;;;;;5050946;28;20451;-51
2021/06/15 07:12:00;;;;;;;1.77;1.25;;;25.40;51.00;;;;;;5039140;28;20463;-48
2021/06/15 07:14:27;;;;;;;1.92;1.40;;;25.40;51.00;;;;;;5055807;28;20045;-50
2021/06/15 07:16:54;;;;;;;1.67;1.15;;;25.40;51.00;;;;;;5054245;28;20056;-50
2021/06/15 07:19:21;;;;;;;1.23;1.00;;;25.40;51.00;;;;;;5035959;28;20053;-51
2021/06/15 07:21:48;;;;;;;1.77;1.30;;;25.40;51.00;;;;;;5053469;28;20155;-49
2021/06/15 07:24:21;;;;;;;1.20;1.10;;;25.40;51.00;;;;;;5053682;28;20060;-50
2021/06/15 07:26:49;;;;;;;2.00;1.20;;;25.40;51.00;;;;;;5053198;28;20049;-50
2021/06/15 07:29:16;;;;;;;1.90;1.38;;;25.40;51.00;;;;;;5053020;28;20049;-52
2021/06/15 07:31:44;;;;;;;1.88;1.20;;;25.40;51.00;;;;;;5036771;28;20498;-49
2021/06/15 07:34:11;;;;;;;1.52;1.15;;;25.40;51.00;;;;;;5037549;28;20501;-49
2021/06/15 07:36:38;;;;;;;1.17;0.88;;;25.40;51.00;;;;;;5051163;28;20072;-49
2021/06/15 07:39:05;;;;;;;1.65;1.17;;;25.40;51.00;;;;;;5039566;28;20099;-51
2021/06/15 07:41:33;;;;;;;1.65;1.25;;;25.40;51.00;;;;;;5049377;28;20153;-49
2021/06/15 07:44:00;;;;;;;1.77;1.50;;;25.40;51.00;;;;;;5053603;28;20460;-50
2021/06/15 07:46:27;;;;;;;1.20;0.98;;;25.50;51.00;;;;;;5053026;28;20049;-47
2021/06/15 07:48:55;;;;;;;1.98;1.25;;;25.40;50.90;;;;;;5053590;28;20049;-49
2021/06/15 07:51:22;;;;;;;1.67;1.20;;;25.40;50.90;;;;;;5052625;28;20099;-49
2021/06/15 07:53:50;;;;;;;1.60;1.20;;;25.40;50.90;;;;;;5052930;28;20120;-50
2021/06/15 07:56:17;;;;;;;1.83;1.40;;;25.50;51.00;;;;;;5052724;28;20045;-49
2021/06/15 07:58:44;;;;;;;1.70;1.30;;;25.50;51.00;;;;;;5051031;28;20481;-51
2021/06/15 08:01:11;;;;;;;2.00;1.23;;;25.50;50.90;;;;;;5052483;28;20523;-49
2021/06/15 08:03:39;;;;;;;2.22;1.30;;;25.50;50.90;;;;;;5053390;28;20049;-52
2021/06/15 08:06:06;;;;;;;1.33;1.13;;;25.50;50.90;;;;;;5052497;28;20107;-51
2021/06/15 08:08:34;;;;;;;2.03;1.40;;;25.50;50.90;;;;;;5052486;28;20040;-50
2021/06/15 08:11:02;;;;;;;1.73;1.20;;;25.50;50.90;;;;;;5049547;28;20040;-51
2021/06/15 08:13:31;;;;;;;1.75;1.17;;;25.50;50.90;;;;;;5035904;28;20076;-50
2021/06/15 08:15:58;;;;;;;1.33;1.05;;;25.50;50.90;;;;;;5036249;28;20455;-50
2021/06/15 08:18:25;;;;;;;1.60;1.25;;;25.50;50.90;;;;;;5037756;28;20060;-52
2021/06/15 08:20:54;;;;;;;1.77;1.10;;;25.50;50.90;;;;;;5051975;28;20044;-55
2021/06/15 08:23:23;;;;;;;2.15;1.38;;;25.50;50.90;;;;;;5054613;28;20081;-54
2021/06/15 08:25:51;;;;;;;1.67;1.10;;;25.60;51.00;;;;;;5054172;28;20103;-53
2021/06/15 08:28:18;;;;;;;1.83;1.40;;;25.60;51.00;;;;;;5034678;28;20107;-54
2021/06/15 08:30:47;;;;;;;1.20;1.00;;;25.60;51.00;;;;;;5052579;28;20106;-53
2021/06/15 08:33:15;;;;;;;1.40;1.02;;;25.50;50.90;;;;;;5034515;28;20119;-51
2021/06/15 08:35:44;;;;;;;1.67;1.10;;;25.60;51.00;;;;;;5052446;28;20090;-51
2021/06/15 08:38:11;;;;;;;1.67;1.30;;;25.60;51.00;;;;;;5053075;28;20458;-49
2021/06/15 08:40:39;;;;;;;1.88;1.27;;;25.60;50.90;;;;;;5051870;28;20103;-49
2021/06/15 08:43:06;;;;;;;2.13;1.17;;;25.60;50.90;;;;;;5052956;28;20053;-50
2021/06/15 08:45:33;;;;;;;1.75;1.20;;;25.60;50.90;;;;;;5063836;28;20455;-53
2021/06/15 08:48:00;;;;;;;1.70;1.25;;;25.60;50.90;;;;;;5057718;28;20057;-50
2021/06/15 08:50:28;;;;;;;2.10;1.45;;;25.60;51.50;;;;;;5052824;28;20539;-53
2021/06/15 08:52:55;;;;;;;1.15;0.98;;;25.60;50.90;;;;;;5042484;28;20050;-53
2021/06/15 08:55:32;;;;;;;1.65;1.20;;;25.60;50.90;;;;;;5035086;28;20045;-52
2021/06/15 08:58:27;;;;;;;1.45;1.10;;;25.60;50.90;;;;;;5044426;28;20057;-50
2021/06/15 09:00:54;;;;;;;1.30;1.13;;;25.60;50.90;;;;;;5051624;28;20080;-52
2021/06/15 09:03:22;;;;;;;1.50;1.20;;;25.60;50.90;;;;;;5051620;28;20049;-54
2021/06/15 09:05:51;;;;;;;2.53;1.50;;;25.60;50.80;;;;;;5051542;28;20492;-51
2021/06/15 09:08:23;;;;;;;1.67;1.20;;;25.60;50.80;;;;;;5051705;28;20068;-52
2021/06/15 09:10:51;;;;;;;2.00;1.30;;;25.60;50.80;;;;;;5053017;28;20041;-52
2021/06/15 09:13:39;;;;;;;1.38;1.10;;;25.70;50.90;;;;;;5051570;28;20037;-49
2021/06/15 09:16:29;;;;;;;1.13;0.98;;;25.70;50.90;;;;;;5051672;28;20072;-50
2021/06/15 09:18:59;;;;;;;1.75;1.20;;;25.70;50.90;;;;;;5051597;28;20053;-52
2021/06/15 09:21:29;;;;;;;1.30;1.17;;;25.70;50.80;;;;;;5052599;28;20064;-52
2021/06/15 09:24:03;;;;;;;1.65;1.30;;;25.70;50.80;;;;;;5052830;28;20057;-54
2021/06/15 09:26:56;;;;;;;1.50;1.10;;;25.70;50.80;;;;;;5051515;28;20044;-53
2021/06/15 09:29:39;;;;;;;1.90;1.15;;;25.70;50.80;;;;;;5032853;28;20048;-55
2021/06/15 09:32:09;;;;;;;1.25;1.10;;;25.70;50.80;;;;;;5051652;28;20045;-51
2021/06/15 09:34:52;;;;;;;1.00;0.90;;;25.70;50.80;;;;;;5039100;28;20046;-55
2021/06/15 09:37:28;;;;;;;2.13;1.30;;;25.70;50.80;;;;;;5051993;28;20048;-49
2021/06/15 09:39:57;;;;;;;2.17;1.23;;;25.70;50.70;;;;;;5052737;28;20076;-52
2021/06/15 09:42:24;;;;;;;1.50;1.17;;;25.70;50.70;;;;;;5051251;28;20052;-51
2021/06/15 09:44:51;;;;;;;1.60;1.25;;;25.70;50.70;;;;;;5044132;28;20053;-50
2021/06/15 09:47:23;;;;;;;2.38;1.50;;;25.80;50.70;;;;;;5047682;28;20084;-50
2021/06/15 09:49:51;;;;;;;2.45;1.17;;;25.70;50.70;;;;;;5054162;28;20099;-54
2021/06/15 09:52:26;;;;;;;1.63;1.20;;;25.80;50.70;;;;;;5054932;28;20045;-54
2021/06/15 09:55:07;;;;;;;1.50;1.00;;;25.80;50.70;;;;;;5043703;28;20514;-48
2021/06/15 09:57:37;;;;;;;1.85;1.10;;;25.80;50.70;;;;;;5054322;28;20493;-49
2021/06/15 10:00:22;;;;;;;2.60;1.40;;;25.80;50.70;;;;;;5054391;28;20049;-47
2021/06/15 10:02:49;;;;;;;1.92;1.20;;;25.80;50.70;;;;;;5056207;28;20147;-48
2021/06/15 10:05:32;;;;;;;1.40;0.98;;;25.80;50.60;;;;;;5055585;28;20598;-48
2021/06/15 10:08:03;;;;;;;2.13;1.40;;;25.80;50.60;;;;;;5054525;28;20052;-48
2021/06/15 10:10:39;;;;;;;1.83;1.30;;;25.80;50.70;;;;;;5040484;28;20045;-49
2021/06/15 10:13:07;;;;;;;2.35;1.27;;;25.80;50.60;;;;;;5038383;28;20117;-49
2021/06/15 10:15:38;;;;;;;1.55;1.13;;;25.80;50.60;;;;;;5053631;28;20045;-47
2021/06/15 10:18:07;;;;;;;1.38;1.00;;;25.80;50.60;;;;;;5054828;28;20052;-51
2021/06/15 10:20:35;;;;;;;1.40;1.20;;;25.90;50.60;;;;;;5054254;28;20493;-50
2021/06/15 10:23:04;;;;;;;1.60;1.17;;;25.90;50.60;;;;;;5055526;28;20045;-50
2021/06/15 10:25:33;;;;;;;1.73;1.20;;;25.90;50.60;;;;;;5044049;28;20053;-51
2021/06/15 10:28:10;;;;;;;1.85;1.13;;;25.90;50.60;;;;;;5048315;28;20056;-52
2021/06/15 10:30:40;;;;;;;1.40;1.10;;;25.90;50.60;;;;;;5054261;28;20053;-51
2021/06/15 10:33:15;;;;;;;1.40;1.05;;;25.90;50.60;;;;;;5054707;28;20132;-51
2021/06/15 10:35:50;;;;;;;1.67;1.23;;;25.90;50.50;;;;;;5054553;28;20052;-51
2021/06/15 10:38:19;;;;;;;1.52;0.98;;;25.90;50.50;;;;;;5053076;28;20413;-49
2021/06/15 10:40:49;;;;;;;1.55;1.00;;;25.90;50.50;;;;;;5054106;28;20045;-48
2021/06/15 10:43:29;;;;;;;1.70;1.13;;;26.00;50.50;;;;;;5044535;28;20050;-52
2021/06/15 10:46:01;;;;;;;1.70;1.10;;;26.00;50.50;;;;;;5039445;28;20045;-51
2021/06/15 10:48:31;;;;;;;1.33;1.00;;;25.90;50.40;;;;;;5047667;28;20075;-50
2021/06/15 10:51:02;;;;;;;1.67;1.20;;;26.00;50.50;;;;;;5055138;28;20049;-50
2021/06/15 10:53:40;;;;;;;2.53;1.20;;;26.00;50.50;;;;;;5044756;28;20052;-49
2021/06/15 10:56:10;;;;;;;1.60;1.10;;;26.00;50.50;;;;;;5038465;28;20440;-52
2021/06/15 10:58:44;;;;;;;1.42;1.10;;;26.00;50.40;;;;;;5045267;28;20053;-54
2021/06/15 11:01:17;;;;;;;;;;;26.00;50.50;;;;;;5060390;28;20449;-52
2021/06/15 11:03:51;;;;;;;1.35;1.00;;;26.00;50.40;;;;;;5046361;28;19936;-53
2021/06/15 11:06:29;;;;;;;1.27;1.08;;;26.00;50.40;;;;;;5045560;28;20050;-54
2021/06/15 11:09:37;;;;;;;1.27;1.10;;;26.00;50.40;;;;;;5049169;28;20119;-52
2021/06/15 11:12:01;;;;;;;1.52;1.10;;;26.00;50.50;;;;;;5041226;28;20091;-48
2021/06/15 11:14:28;;;;;;;1.50;1.13;;;26.00;50.50;;;;;;5038541;28;20104;-53
2021/06/15 11:17:00;;;;;;;1.90;1.40;;;26.00;50.50;;;;;;5050601;28;20049;-52
2021/06/15 11:19:33;;;;;;;1.63;1.17;;;26.00;50.50;;;;;;5053227;28;20496;-52
2021/06/15 11:22:12;;;;;;;1.40;0.95;;;26.00;50.50;;;;;;5053436;28;20049;-54
2021/06/15 11:24:41;;;;;;;1.02;0.80;;;26.00;50.50;;;;;;5052868;28;20555;-52
2021/06/15 11:27:32;;;;;;;1.88;1.10;;;26.00;50.50;;;;;;5053182;28;20119;-53
2021/06/15 11:30:11;;;;;;;1.17;1.08;;;26.00;50.50;;;;;;5052498;28;20076;-50
2021/06/15 11:32:52;;;;;;;2.88;1.40;;;26.00;50.60;;;;;;5052686;28;20091;-51
2021/06/15 11:35:20;;;;;;;1.58;1.08;;;26.00;50.60;;;;;;5050784;28;20565;-52
2021/06/15 11:37:50;;;;;;;1.80;1.23;;;26.00;50.60;;;;;;5037431;28;20045;-50
2021/06/15 11:40:33;;;;;;;1.75;1.10;;;26.00;50.60;;;;;;5036347;28;20528;-50
2021/06/15 11:43:10;;;;;;;1.67;1.10;;;26.00;50.60;;;;;;5051899;28;20049;-50
2021/06/15 11:45:41;;;;;;;2.38;1.25;;;26.00;50.60;;;;;;5038947;28;20107;-51
2021/06/15 11:48:32;;;;;;;1.42;1.15;;;26.00;50.60;;;;;;5052653;28;20052;-52
2021/06/15 11:51:02;;;;;;;1.20;1.10;;;26.00;50.60;;;;;;5052674;28;20076;-50
2021/06/15 11:53:31;;;;;;;1.40;1.00;;;26.00;50.60;;;;;;5034875;28;20046;-51
2021/06/15 11:56:02;;;;;;;1.20;0.80;;;26.00;50.60;;;;;;5053143;28;20111;-49
2021/06/15 11:58:40;;;;;;;2.35;1.27;;;26.00;50.60;;;;;;5053492;28;20160;-54
2021/06/15 12:01:13;;;;;;;1.80;1.10;;;26.00;50.60;;;;;;5036000;28;20513;-55
2021/06/15 12:03:46;;;;;;;1.55;1.05;;;26.00;50.60;;;;;;5052661;28;20532;-54
2021/06/15 12:06:16;;;;;;;1.60;0.98;;;26.00;50.60;;;;;;5054071;28;20044;-49
2021/06/15 12:08:46;;;;;;;1.45;1.10;;;26.00;50.60;;;;;;5049561;28;20045;-52
2021/06/15 12:11:19;;;;;;;1.08;0.88;;;26.00;50.60;;;;;;5051903;28;20044;-51
2021/06/15 12:13:48;;;;;;;1.52;1.15;;;26.00;50.60;;;;;;5052673;28;20041;-51
2021/06/15 12:16:24;;;;;;;1.52;1.30;;;26.00;50.70;;;;;;5053283;28;20072;-55
2021/06/15 12:18:55;;;;;;;2.05;1.20;;;26.10;50.70;;;;;;5051426;28;20044;-51
2021/06/15 12:21:27;;;;;;;1.92;1.15;;;26.00;50.60;;;;;;5051331;28;20459;-52
2021/06/15 12:24:04;;;;;;;1.88;1.08;;;26.00;50.60;;;;;;5037094;28;20095;-52
2021/06/15 12:26:50;;;;;;;1.45;1.20;;;26.00;50.60;;;;;;5065822;28;20478;-51
2021/06/15 12:29:18;;;;;;;1.65;1.25;;;26.00;50.60;;;;;;5052134;28;20053;-51
2021/06/15 12:31:48;;;;;;;1.13;1.00;;;26.00;50.70;;;;;;5052069;28;20131;-53
2021/06/15 12:34:21;;;;;;;1.30;0.98;;;26.00;50.70;;;;;;5054630;28;20049;-54
2021/06/15 12:36:54;;;;;;;2.80;1.38;;;26.00;50.70;;;;;;5037706;28;20064;-53
2021/06/15 12:39:22;;;;;;;1.73;0.98;;;26.00;50.70;;;;;;5051327;28;20107;-53
2021/06/15 12:41:58;;;;;;;1.50;1.02;;;26.00;50.70;;;;;;5037820;28;20095;-52
2021/06/15 12:44:31;;;;;;;2.08;1.30;;;26.00;50.70;;;;;;5050090;28;20572;-55
2021/06/15 12:47:09;;;;;;;1.50;1.00;;;26.00;50.70;;;;;;5052295;28;20471;-50
2021/06/15 12:49:56;;;;;;;1.83;1.13;;;26.00;50.70;;;;;;5036636;28;20042;-51
2021/06/15 12:52:34;;;;;;;1.50;1.10;;;26.00;50.70;;;;;;5051364;28;20053;-48
2021/06/15 12:55:10;;;;;;;1.48;1.20;;;26.00;50.60;;;;;;5053099;28;20052;-49
2021/06/15 12:57:37;;;;;;;2.08;1.17;;;26.00;50.60;;;;;;5052219;28;20470;-49
2021/06/15 13:00:08;;;;;;;1.75;1.00;;;26.10;50.60;;;;;;5053226;28;20053;-48
2021/06/15 13:02:38;;;;;;;1.98;1.00;;;26.10;50.60;;;;;;5051820;28;20049;-49
2021/06/15 13:05:14;;;;;;;1.25;0.93;;;26.10;50.60;;;;;;5052035;28;20122;-48
2021/06/15 13:07:55;;;;;;;2.15;1.00;;;26.10;50.60;;;;;;5052751;28;20041;-52
2021/06/15 13:10:23;;;;;;;1.80;1.10;;;26.10;50.60;;;;;;5050188;28;20511;-53
2021/06/15 13:12:55;;;;;;;2.03;1.10;;;26.10;50.60;;;;;;5034358;28;20045;-51
2021/06/15 13:15:24;;;;;;;1.50;1.02;;;26.10;50.60;;;;;;5051807;28;20141;-50